createdAt,value
2017-02-14T00:00:24.726Z,1022.99
2017-02-14T00:01:24.696Z,1023.03
2017-02-14T00:02:24.669Z,1023.01
2017-02-14T00:03:24.652Z,1023.01
2017-02-14T00:04:24.618Z,1023.02
2017-02-14T00:05:24.603Z,1022.99
2017-02-14T00:06:24.575Z,1022.97
2017-02-14T00:07:24.542Z,1022.92
2017-02-14T00:08:24.516Z,1022.87
2017-02-14T00:09:24.487Z,1022.88
2017-02-14T00:10:24.464Z,1022.91
2017-02-14T00:11:24.446Z,1022.95
2017-02-14T00:12:24.412Z,1022.92
2017-02-14T00:13:24.382Z,1022.92
2017-02-14T00:14:24.359Z,1022.88
2017-02-14T00:15:24.344Z,1022.86
2017-02-14T00:16:24.308Z,1022.9
2017-02-14T00:17:24.281Z,1022.93
2017-02-14T00:18:24.262Z,1022.89
2017-02-14T00:19:24.232Z,1022.88
2017-02-14T00:20:24.209Z,1022.89
2017-02-14T00:21:24.180Z,1022.91
2017-02-14T00:22:24.150Z,1022.85
2017-02-14T00:23:24.129Z,1022.9
2017-02-14T00:24:24.098Z,1022.9
2017-02-14T00:25:24.075Z,1022.91
2017-02-14T00:26:24.047Z,1022.89
2017-02-14T00:27:24.027Z,1022.91
2017-02-14T00:28:23.997Z,1022.92
2017-02-14T00:29:23.969Z,1022.92
2017-02-14T00:30:23.945Z,1022.93
2017-02-14T00:31:23.915Z,1022.94
2017-02-14T00:32:23.893Z,1022.89
2017-02-14T00:33:23.874Z,1022.88
2017-02-14T00:34:23.847Z,1022.87
2017-02-14T00:35:23.813Z,1022.84
2017-02-14T00:36:23.790Z,1022.86
2017-02-14T00:37:23.761Z,1022.87
2017-02-14T00:38:23.740Z,1022.8
2017-02-14T00:39:23.719Z,1022.79
2017-02-14T00:40:23.683Z,1022.88
2017-02-14T00:41:23.657Z,1022.83
2017-02-14T00:42:23.628Z,1022.93
2017-02-14T00:43:23.603Z,1022.9
2017-02-14T00:44:23.588Z,1022.91
2017-02-14T00:45:23.552Z,1022.95
2017-02-14T00:46:23.524Z,1022.93
2017-02-14T00:47:23.505Z,1022.95
2017-02-14T00:48:23.475Z,1022.91
2017-02-14T00:49:23.454Z,1022.88
2017-02-14T00:50:23.424Z,1022.92
2017-02-14T00:51:23.401Z,1022.96
2017-02-14T00:52:23.373Z,1022.92
2017-02-14T00:53:23.345Z,1022.89
2017-02-14T00:54:23.322Z,1022.86
2017-02-14T00:55:23.298Z,1022.87
2017-02-14T00:56:23.271Z,1022.85
2017-02-14T00:57:23.243Z,1022.88
2017-02-14T00:58:23.220Z,1022.86
2017-02-14T00:59:23.189Z,1022.89
2017-02-14T01:00:23.160Z,1022.87
2017-02-14T01:01:23.137Z,1022.87
2017-02-14T01:02:23.113Z,1022.79
2017-02-14T01:03:23.087Z,1022.81
2017-02-14T01:04:23.058Z,1022.81
2017-02-14T01:05:23.036Z,1022.87
2017-02-14T01:06:23.005Z,1022.82
2017-02-14T01:07:22.985Z,1022.87
2017-02-14T01:08:22.956Z,1022.89
2017-02-14T01:09:22.929Z,1022.86
2017-02-14T01:10:22.901Z,1022.87
2017-02-14T01:11:22.883Z,1022.92
2017-02-14T01:12:22.852Z,1022.88
2017-02-14T01:13:22.831Z,1022.84
2017-02-14T01:14:22.801Z,1022.9
2017-02-14T01:15:22.775Z,1022.89
2017-02-14T01:16:22.753Z,1022.89
2017-02-14T01:17:22.716Z,1022.91
2017-02-14T01:18:22.695Z,1022.88
2017-02-14T01:19:22.667Z,1022.91
2017-02-14T01:20:22.647Z,1022.91
2017-02-14T01:21:22.614Z,1022.91
2017-02-14T01:22:22.590Z,1022.94
2017-02-14T01:23:22.560Z,1022.9
2017-02-14T01:24:22.536Z,1022.98
2017-02-14T01:25:22.512Z,1022.96
2017-02-14T01:26:22.480Z,1022.96
2017-02-14T01:27:22.455Z,1022.96
2017-02-14T01:28:22.433Z,1022.94
2017-02-14T01:29:22.404Z,1022.89
2017-02-14T01:30:22.379Z,1022.9
2017-02-14T01:31:22.361Z,1022.9
2017-02-14T01:32:22.336Z,1022.84
2017-02-14T01:33:22.298Z,1022.84
2017-02-14T01:34:22.272Z,1022.85
2017-02-14T01:35:22.250Z,1022.8
2017-02-14T01:36:22.220Z,1022.77
2017-02-14T01:37:22.191Z,1022.75
2017-02-14T01:38:22.167Z,1022.72
2017-02-14T01:39:22.137Z,1022.67
2017-02-14T01:40:22.116Z,1022.69
2017-02-14T01:41:22.086Z,1022.68
2017-02-14T01:42:22.059Z,1022.67
2017-02-14T01:43:22.035Z,1022.66
2017-02-14T01:44:22.005Z,1022.66
2017-02-14T01:45:21.981Z,1022.66
2017-02-14T01:46:21.955Z,1022.63
2017-02-14T01:47:21.929Z,1022.63
2017-02-14T01:48:21.903Z,1022.65
2017-02-14T01:49:21.873Z,1022.61
2017-02-14T01:50:21.851Z,1022.69
2017-02-14T01:51:21.820Z,1022.71
2017-02-14T01:52:21.801Z,1022.73
2017-02-14T01:53:21.769Z,1022.66
2017-02-14T01:54:21.742Z,1022.64
2017-02-14T01:55:21.720Z,1022.6
2017-02-14T01:56:21.688Z,1022.6
2017-02-14T01:57:21.667Z,1022.62
2017-02-14T01:58:21.639Z,1022.52
2017-02-14T01:59:21.618Z,1022.53
2017-02-14T02:00:21.587Z,1022.49
2017-02-14T02:01:21.567Z,1022.5
2017-02-14T02:02:21.536Z,1022.52
2017-02-14T02:03:21.504Z,1022.53
2017-02-14T02:04:21.485Z,1022.47
2017-02-14T02:05:21.454Z,1022.46
2017-02-14T02:06:21.426Z,1022.45
2017-02-14T02:07:21.403Z,1022.43
2017-02-14T02:08:21.379Z,1022.4
2017-02-14T02:09:21.351Z,1022.43
2017-02-14T02:10:21.321Z,1022.38
2017-02-14T02:11:21.302Z,1022.4
2017-02-14T02:12:21.272Z,1022.47
2017-02-14T02:13:21.251Z,1022.44
2017-02-14T02:14:21.220Z,1022.42
2017-02-14T02:15:21.202Z,1022.41
2017-02-14T02:16:21.169Z,1022.43
2017-02-14T02:17:21.138Z,1022.44
2017-02-14T02:18:21.111Z,1022.41
2017-02-14T02:19:21.088Z,1022.43
2017-02-14T02:20:21.064Z,1022.44
2017-02-14T02:21:21.031Z,1022.36
2017-02-14T02:22:21.005Z,1022.38
2017-02-14T02:23:20.983Z,1022.35
2017-02-14T02:24:20.952Z,1022.29
2017-02-14T02:25:20.933Z,1022.32
2017-02-14T02:26:20.903Z,1022.27
2017-02-14T02:27:20.876Z,1022.25
2017-02-14T02:28:20.847Z,1022.26
2017-02-14T02:29:20.820Z,1022.25
2017-02-14T02:30:20.794Z,1022.23
2017-02-14T02:31:20.771Z,1022.23
2017-02-14T02:32:20.740Z,1022.2
2017-02-14T02:33:20.718Z,1022.14
2017-02-14T02:34:20.688Z,1022.11
2017-02-14T02:35:20.662Z,1022.08
2017-02-14T02:36:20.635Z,1022.05
2017-02-14T02:37:20.616Z,1022.03
2017-02-14T02:38:20.586Z,1022.02
2017-02-14T02:39:20.553Z,1022.03
2017-02-14T02:40:20.530Z,1022
2017-02-14T02:41:20.501Z,1022.02
2017-02-14T02:42:20.477Z,1022.01
2017-02-14T02:43:20.454Z,1022.04
2017-02-14T02:44:20.422Z,1022.01
2017-02-14T02:45:20.397Z,1022.03
2017-02-14T02:46:20.371Z,1022.03
2017-02-14T02:47:20.342Z,1022.01
2017-02-14T02:48:20.317Z,1022.01
2017-02-14T02:49:20.292Z,1021.96
2017-02-14T02:50:20.267Z,1021.92
2017-02-14T02:51:20.236Z,1021.93
2017-02-14T02:52:20.211Z,1021.89
2017-02-14T02:53:20.184Z,1021.93
2017-02-14T02:54:20.158Z,1021.93
2017-02-14T02:55:20.129Z,1021.89
2017-02-14T02:56:20.108Z,1021.93
2017-02-14T02:57:20.077Z,1021.93
2017-02-14T02:58:20.054Z,1021.94
2017-02-14T02:59:20.045Z,1021.92
2017-02-14T03:00:20.002Z,1021.94
2017-02-14T03:01:19.972Z,1021.93
2017-02-14T03:02:19.945Z,1021.93
2017-02-14T03:03:19.923Z,1021.91
2017-02-14T03:04:19.903Z,1021.88
2017-02-14T03:05:19.867Z,1021.92
2017-02-14T03:06:19.842Z,1021.87
2017-02-14T03:07:19.810Z,1021.86
2017-02-14T03:08:19.782Z,1021.86
2017-02-14T03:09:19.759Z,1021.86
2017-02-14T03:10:19.729Z,1021.77
2017-02-14T03:11:19.701Z,1021.76
2017-02-14T03:12:19.679Z,1021.74
2017-02-14T03:13:19.647Z,1021.71
2017-02-14T03:14:19.624Z,1021.72
2017-02-14T03:15:19.595Z,1021.73
2017-02-14T03:16:19.566Z,1021.71
2017-02-14T03:17:19.545Z,1021.78
2017-02-14T03:18:19.515Z,1021.72
2017-02-14T03:19:19.485Z,1021.74
2017-02-14T03:20:19.463Z,1021.79
2017-02-14T03:21:19.432Z,1021.75
2017-02-14T03:22:19.415Z,1021.8
2017-02-14T03:23:19.380Z,1021.79
2017-02-14T03:24:19.361Z,1021.75
2017-02-14T03:25:19.329Z,1021.77
2017-02-14T03:26:19.300Z,1021.8
2017-02-14T03:27:19.273Z,1021.82
2017-02-14T03:28:19.249Z,1021.79
2017-02-14T03:29:19.219Z,1021.78
2017-02-14T03:30:19.197Z,1021.79
2017-02-14T03:31:19.165Z,1021.79
2017-02-14T03:32:19.140Z,1021.82
2017-02-14T03:33:19.114Z,1021.81
2017-02-14T03:34:19.086Z,1021.82
2017-02-14T03:35:19.088Z,1021.77
2017-02-14T03:36:19.035Z,1021.76
2017-02-14T03:37:19.003Z,1021.73
2017-02-14T03:38:18.979Z,1021.7
2017-02-14T03:39:18.954Z,1021.68
2017-02-14T03:40:18.923Z,1021.76
2017-02-14T03:41:18.897Z,1021.73
2017-02-14T03:42:18.900Z,1021.78
2017-02-14T03:43:18.848Z,1021.85
2017-02-14T03:44:18.849Z,1021.84
2017-02-14T03:45:18.789Z,1021.84
2017-02-14T03:46:18.767Z,1021.88
2017-02-14T03:47:18.737Z,1021.86
2017-02-14T03:48:18.708Z,1021.91
2017-02-14T03:49:18.700Z,1021.91
2017-02-14T03:50:18.656Z,1021.88
2017-02-14T03:51:18.631Z,1021.89
2017-02-14T03:52:18.605Z,1021.85
2017-02-14T03:53:18.576Z,1021.87
2017-02-14T03:54:18.549Z,1021.8
2017-02-14T03:55:18.526Z,1021.81
2017-02-14T03:56:18.499Z,1021.8
2017-02-14T03:57:18.475Z,1021.77
2017-02-14T03:58:18.453Z,1021.73
2017-02-14T03:59:18.419Z,1021.73
2017-02-14T04:00:18.391Z,1021.69
2017-02-14T04:01:18.369Z,1021.69
2017-02-14T04:02:18.342Z,1021.68
2017-02-14T04:03:18.310Z,1021.67
2017-02-14T04:04:18.291Z,1021.68
2017-02-14T04:05:18.260Z,1021.66
2017-02-14T04:06:18.233Z,1021.67
2017-02-14T04:07:18.207Z,1021.63
2017-02-14T04:08:18.178Z,1021.64
2017-02-14T04:09:18.157Z,1021.67
2017-02-14T04:10:18.124Z,1021.68
2017-02-14T04:11:18.097Z,1021.67
2017-02-14T04:12:18.070Z,1021.68
2017-02-14T04:13:18.046Z,1021.67
2017-02-14T04:14:18.026Z,1021.68
2017-02-14T04:15:17.990Z,1021.7
2017-02-14T04:16:17.964Z,1021.65
2017-02-14T04:17:17.943Z,1021.71
2017-02-14T04:18:17.909Z,1021.7
2017-02-14T04:19:17.889Z,1021.76
2017-02-14T04:20:17.860Z,1021.74
2017-02-14T04:21:17.832Z,1021.73
2017-02-14T04:22:17.809Z,1021.73
2017-02-14T04:23:17.780Z,1021.72
2017-02-14T04:24:17.750Z,1021.71
2017-02-14T04:25:17.726Z,1021.76
2017-02-14T04:26:17.699Z,1021.7
2017-02-14T04:27:17.667Z,1021.74
2017-02-14T04:28:17.654Z,1021.76
2017-02-14T04:29:17.617Z,1021.81
2017-02-14T04:30:17.589Z,1021.82
2017-02-14T04:31:17.562Z,1021.82
2017-02-14T04:32:17.537Z,1021.84
2017-02-14T04:33:17.508Z,1021.81
2017-02-14T04:34:17.484Z,1021.84
2017-02-14T04:35:17.456Z,1021.85
2017-02-14T04:36:17.428Z,1021.84
2017-02-14T04:37:17.402Z,1021.85
2017-02-14T04:38:17.380Z,1021.85
2017-02-14T04:39:17.347Z,1021.94
2017-02-14T04:40:17.322Z,1021.9
2017-02-14T04:41:17.294Z,1021.98
2017-02-14T04:42:17.269Z,1021.98
2017-02-14T04:43:17.239Z,1022.02
2017-02-14T04:44:17.223Z,1022
2017-02-14T04:45:17.188Z,1022
2017-02-14T04:46:17.160Z,1021.99
2017-02-14T04:47:17.135Z,1022.05
2017-02-14T04:48:17.110Z,1022.02
2017-02-14T04:49:17.088Z,1022
2017-02-14T04:50:17.056Z,1022
2017-02-14T04:51:17.034Z,1021.94
2017-02-14T04:52:17.001Z,1021.94
2017-02-14T04:53:16.975Z,1021.94
2017-02-14T04:54:16.953Z,1021.94
2017-02-14T04:55:16.923Z,1021.95
2017-02-14T04:56:16.894Z,1021.96
2017-02-14T04:57:16.868Z,1021.86
2017-02-14T04:58:16.844Z,1021.86
2017-02-14T04:59:16.821Z,1021.85
2017-02-14T05:00:16.795Z,1021.84
2017-02-14T05:01:16.765Z,1021.82
2017-02-14T05:02:16.739Z,1021.78
2017-02-14T05:03:16.710Z,1021.74
2017-02-14T05:04:16.679Z,1021.66
2017-02-14T05:05:16.659Z,1021.61
2017-02-14T05:06:16.629Z,1021.55
2017-02-14T05:07:16.606Z,1021.57
2017-02-14T05:08:16.578Z,1021.54
2017-02-14T05:09:16.606Z,1021.53
2017-02-14T05:10:16.521Z,1021.52
2017-02-14T05:11:16.496Z,1021.53
2017-02-14T05:12:16.465Z,1021.5
2017-02-14T05:13:16.445Z,1021.48
2017-02-14T05:14:16.413Z,1021.51
2017-02-14T05:15:16.392Z,1021.51
2017-02-14T05:16:16.364Z,1021.53
2017-02-14T05:17:16.341Z,1021.54
2017-02-14T05:18:16.305Z,1021.59
2017-02-14T05:19:16.282Z,1021.56
2017-02-14T05:20:16.249Z,1021.55
2017-02-14T05:21:16.225Z,1021.56
2017-02-14T05:22:16.200Z,1021.6
2017-02-14T05:23:16.169Z,1021.6
2017-02-14T05:24:16.146Z,1021.55
2017-02-14T05:25:16.118Z,1021.53
2017-02-14T05:26:16.095Z,1021.56
2017-02-14T05:27:16.067Z,1021.52
2017-02-14T05:28:16.035Z,1021.58
2017-02-14T05:29:16.016Z,1021.54
2017-02-14T05:30:15.986Z,1021.58
2017-02-14T05:31:15.955Z,1021.53
2017-02-14T05:32:15.927Z,1021.56
2017-02-14T05:33:15.901Z,1021.55
2017-02-14T05:34:15.879Z,1021.58
2017-02-14T05:35:15.850Z,1021.58
2017-02-14T05:36:15.819Z,1021.59
2017-02-14T05:37:15.802Z,1021.56
2017-02-14T05:38:15.771Z,1021.62
2017-02-14T05:39:15.741Z,1021.66
2017-02-14T05:40:15.720Z,1021.67
2017-02-14T05:41:15.689Z,1021.62
2017-02-14T05:42:15.659Z,1021.62
2017-02-14T05:43:15.647Z,1021.69
2017-02-14T05:44:15.610Z,1021.65
2017-02-14T05:45:15.581Z,1021.65
2017-02-14T05:46:15.557Z,1021.62
2017-02-14T05:47:15.526Z,1021.64
2017-02-14T05:48:15.505Z,1021.63
2017-02-14T05:49:15.472Z,1021.66
2017-02-14T05:50:15.444Z,1021.65
2017-02-14T05:51:15.424Z,1021.71
2017-02-14T05:52:15.394Z,1021.69
2017-02-14T05:53:15.372Z,1021.69
2017-02-14T05:54:15.339Z,1021.67
2017-02-14T05:55:15.316Z,1021.67
2017-02-14T05:56:15.289Z,1021.67
2017-02-14T05:57:15.260Z,1021.69
2017-02-14T05:58:15.230Z,1021.69
2017-02-14T05:59:15.208Z,1021.69
2017-02-14T06:00:15.179Z,1021.74
2017-02-14T06:01:15.150Z,1021.75
2017-02-14T06:02:15.129Z,1021.72
2017-02-14T06:03:15.094Z,1021.74
2017-02-14T06:04:15.077Z,1021.74
2017-02-14T06:05:15.044Z,1021.74
2017-02-14T06:06:15.069Z,1021.7
2017-02-14T06:07:14.990Z,1021.67
2017-02-14T06:08:15.016Z,1021.7
2017-02-14T06:09:14.935Z,1021.69
2017-02-14T06:10:14.934Z,1021.7
2017-02-14T06:11:14.883Z,1021.67
2017-02-14T06:12:14.929Z,1021.69
2017-02-14T06:13:14.842Z,1021.73
2017-02-14T06:14:14.902Z,1021.73
2017-02-14T06:15:14.783Z,1021.75
2017-02-14T06:16:14.752Z,1021.75
2017-02-14T06:17:14.720Z,1021.75
2017-02-14T06:18:14.701Z,1021.75
2017-02-14T06:19:14.671Z,1021.8
2017-02-14T06:20:14.642Z,1021.82
2017-02-14T06:21:14.620Z,1021.85
2017-02-14T06:22:14.599Z,1021.84
2017-02-14T06:23:14.560Z,1021.83
2017-02-14T06:24:14.538Z,1021.85
2017-02-14T06:25:14.508Z,1021.86
2017-02-14T06:26:14.478Z,1021.9
2017-02-14T06:27:14.452Z,1021.9
2017-02-14T06:28:14.424Z,1021.94
2017-02-14T06:29:14.406Z,1021.97
2017-02-14T06:30:14.374Z,1021.99
2017-02-14T06:31:14.345Z,1022.01
2017-02-14T06:32:14.322Z,1022.04
2017-02-14T06:33:14.294Z,1022.08
2017-02-14T06:34:14.263Z,1022.02
2017-02-14T06:35:14.240Z,1022.03
2017-02-14T06:36:14.213Z,1022.09
2017-02-14T06:37:14.184Z,1022.07
2017-02-14T06:38:14.160Z,1022.09
2017-02-14T06:39:14.131Z,1022.08
2017-02-14T06:40:14.107Z,1022.09
2017-02-14T06:41:14.074Z,1022.1
2017-02-14T06:42:14.045Z,1022.08
2017-02-14T06:43:14.020Z,1022.08
2017-02-14T06:44:13.993Z,1022.06
2017-02-14T06:45:13.967Z,1022.1
2017-02-14T06:46:13.947Z,1022.08
2017-02-14T06:47:13.914Z,1022.04
2017-02-14T06:48:13.884Z,1022.01
2017-02-14T06:49:13.858Z,1022.06
2017-02-14T06:50:13.834Z,1022.05
2017-02-14T06:51:13.805Z,1022.05
2017-02-14T06:52:13.782Z,1022.06
2017-02-14T06:53:13.753Z,1022.03
2017-02-14T06:54:13.722Z,1022.02
2017-02-14T06:55:13.699Z,1022
2017-02-14T06:56:13.670Z,1021.99
2017-02-14T06:57:13.646Z,1022
2017-02-14T06:58:13.620Z,1021.98
2017-02-14T06:59:13.588Z,1021.98
2017-02-14T07:00:13.571Z,1022.01
2017-02-14T07:01:13.534Z,1021.99
2017-02-14T07:02:13.506Z,1021.99
2017-02-14T07:03:13.486Z,1022
2017-02-14T07:04:13.455Z,1021.96
2017-02-14T07:05:13.424Z,1022
2017-02-14T07:06:13.397Z,1022.03
2017-02-14T07:07:13.377Z,1021.99
2017-02-14T07:08:13.344Z,1021.99
2017-02-14T07:09:13.323Z,1021.99
2017-02-14T07:10:13.291Z,1022.01
2017-02-14T07:11:13.303Z,1022.04
2017-02-14T07:12:13.240Z,1022.02
2017-02-14T07:13:13.257Z,1022.03
2017-02-14T07:14:13.181Z,1021.96
2017-02-14T07:15:13.165Z,1022.03
2017-02-14T07:16:13.129Z,1022.12
2017-02-14T07:17:13.100Z,1022.13
2017-02-14T07:18:13.075Z,1022.12
2017-02-14T07:19:13.048Z,1022.13
2017-02-14T07:20:13.022Z,1022.2
2017-02-14T07:21:12.996Z,1022.22
2017-02-14T07:22:12.966Z,1022.17
2017-02-14T07:23:12.941Z,1022.23
2017-02-14T07:24:12.915Z,1022.25
2017-02-14T07:25:12.894Z,1022.28
2017-02-14T07:26:12.868Z,1022.29
2017-02-14T07:27:12.926Z,1022.3
2017-02-14T07:28:12.820Z,1022.3
2017-02-14T07:29:12.796Z,1022.31
2017-02-14T07:30:12.768Z,1022.23
2017-02-14T07:31:12.750Z,1022.23
2017-02-14T07:32:12.729Z,1022.25
2017-02-14T07:33:12.709Z,1022.31
2017-02-14T07:34:12.680Z,1022.35
2017-02-14T07:35:12.654Z,1022.3
2017-02-14T07:36:12.629Z,1022.37
2017-02-14T07:37:12.606Z,1022.33
2017-02-14T07:38:12.584Z,1022.41
2017-02-14T07:39:12.559Z,1022.37
2017-02-14T07:40:12.536Z,1022.4
2017-02-14T07:41:12.520Z,1022.45
2017-02-14T07:42:12.489Z,1022.54
2017-02-14T07:43:12.465Z,1022.65
2017-02-14T07:44:12.441Z,1022.65
2017-02-14T07:45:12.417Z,1022.65
2017-02-14T07:46:12.390Z,1022.67
2017-02-14T07:47:12.371Z,1022.7
2017-02-14T07:48:12.351Z,1022.75
2017-02-14T07:49:12.331Z,1022.74
2017-02-14T07:50:12.306Z,1022.78
2017-02-14T07:51:12.293Z,1022.73
2017-02-14T07:52:12.271Z,1022.75
2017-02-14T07:53:12.249Z,1022.77
2017-02-14T07:54:12.229Z,1022.73
2017-02-14T07:55:12.227Z,1022.77
2017-02-14T07:56:12.190Z,1022.79
2017-02-14T07:57:12.182Z,1022.81
2017-02-14T07:58:12.155Z,1022.84
2017-02-14T07:59:12.143Z,1022.88
2017-02-14T08:00:12.123Z,1022.93
2017-02-14T08:01:12.098Z,1022.94
2017-02-14T08:02:12.077Z,1022.93
2017-02-14T08:03:12.074Z,1022.97
2017-02-14T08:04:12.044Z,1022.97
2017-02-14T08:05:12.031Z,1022.92
2017-02-14T08:06:12.020Z,1022.96
2017-02-14T08:07:11.992Z,1022.95
2017-02-14T08:08:11.986Z,1023
2017-02-14T08:09:11.961Z,1023
2017-02-14T08:10:11.958Z,1023.03
2017-02-14T08:11:11.935Z,1023.04
2017-02-14T08:12:11.919Z,1023.06
2017-02-14T08:13:11.905Z,1023.07
2017-02-14T08:14:11.898Z,1023.06
2017-02-14T08:15:11.878Z,1023.07
2017-02-14T08:16:11.857Z,1023.09
2017-02-14T08:17:11.851Z,1023.14
2017-02-14T08:18:11.838Z,1023.13
2017-02-14T08:19:11.817Z,1023.18
2017-02-14T08:20:11.804Z,1023.15
2017-02-14T08:21:11.795Z,1023.14
2017-02-14T08:22:11.779Z,1023.23
2017-02-14T08:23:11.764Z,1023.27
2017-02-14T08:24:11.750Z,1023.25
2017-02-14T08:25:11.746Z,1023.24
2017-02-14T08:26:11.721Z,1023.24
2017-02-14T08:27:11.709Z,1023.21
2017-02-14T08:28:11.701Z,1023.27
2017-02-14T08:29:11.682Z,1023.23
2017-02-14T08:30:11.672Z,1023.21
2017-02-14T08:31:11.658Z,1023.2
2017-02-14T08:32:11.652Z,1023.23
2017-02-14T08:33:11.630Z,1023.23
2017-02-14T08:34:11.619Z,1023.19
2017-02-14T08:35:11.598Z,1023.19
2017-02-14T08:36:11.588Z,1023.19
2017-02-14T08:37:11.575Z,1023.26
2017-02-14T08:38:11.556Z,1023.22
2017-02-14T08:39:11.553Z,1023.25
2017-02-14T08:40:11.537Z,1023.28
2017-02-14T08:41:11.524Z,1023.27
2017-02-14T08:42:11.506Z,1023.28
2017-02-14T08:43:11.494Z,1023.24
2017-02-14T08:44:11.472Z,1023.25
2017-02-14T08:45:11.463Z,1023.23
2017-02-14T08:46:11.453Z,1023.25
2017-02-14T08:47:11.441Z,1023.27
2017-02-14T08:48:11.420Z,1023.3
2017-02-14T08:49:11.414Z,1023.38
2017-02-14T08:50:11.395Z,1023.31
2017-02-14T08:51:11.432Z,1023.29
2017-02-14T08:52:11.372Z,1023.29
2017-02-14T08:53:11.369Z,1023.29
2017-02-14T08:54:11.348Z,1023.3
2017-02-14T08:55:11.327Z,1023.28
2017-02-14T08:56:11.316Z,1023.28
2017-02-14T08:57:11.307Z,1023.3
2017-02-14T08:58:11.297Z,1023.29
2017-02-14T08:59:11.275Z,1023.25
2017-02-14T09:00:11.272Z,1023.29
2017-02-14T09:01:11.254Z,1023.3
2017-02-14T09:02:11.244Z,1023.37
2017-02-14T09:03:11.233Z,1023.35
2017-02-14T09:04:11.223Z,1023.39
2017-02-14T09:05:11.211Z,1023.4
2017-02-14T09:06:11.201Z,1023.41
2017-02-14T09:07:11.188Z,1023.41
2017-02-14T09:08:11.183Z,1023.42
2017-02-14T09:09:11.170Z,1023.45
2017-02-14T09:10:11.159Z,1023.45
2017-02-14T09:11:11.140Z,1023.42
2017-02-14T09:12:11.129Z,1023.35
2017-02-14T09:13:11.118Z,1023.38
2017-02-14T09:14:11.112Z,1023.43
2017-02-14T09:15:11.108Z,1023.41
2017-02-14T09:16:11.090Z,1023.4
2017-02-14T09:17:11.074Z,1023.43
2017-02-14T09:18:11.064Z,1023.43
2017-02-14T09:19:11.057Z,1023.45
2017-02-14T09:20:11.042Z,1023.45
2017-02-14T09:21:11.034Z,1023.46
2017-02-14T09:22:11.033Z,1023.45
2017-02-14T09:23:11.012Z,1023.43
2017-02-14T09:24:11.003Z,1023.47
2017-02-14T09:25:10.996Z,1023.48
2017-02-14T09:26:10.982Z,1023.51
2017-02-14T09:27:10.968Z,1023.5
2017-02-14T09:28:10.957Z,1023.53
2017-02-14T09:29:10.949Z,1023.57
2017-02-14T09:30:10.940Z,1023.56
2017-02-14T09:31:10.931Z,1023.58
2017-02-14T09:32:10.917Z,1023.61
2017-02-14T09:33:10.909Z,1023.62
2017-02-14T09:34:10.906Z,1023.61
2017-02-14T09:35:10.887Z,1023.62
2017-02-14T09:36:10.875Z,1023.63
2017-02-14T09:37:10.866Z,1023.62
2017-02-14T09:38:10.887Z,1023.66
2017-02-14T09:39:10.845Z,1023.65
2017-02-14T09:40:10.918Z,1023.62
2017-02-14T09:41:10.853Z,1023.63
2017-02-14T09:42:10.813Z,1023.66
2017-02-14T09:43:10.803Z,1023.67
2017-02-14T09:44:10.901Z,1023.64
2017-02-14T09:45:10.781Z,1023.69
2017-02-14T09:46:10.815Z,1023.65
2017-02-14T09:47:10.760Z,1023.73
2017-02-14T09:48:10.747Z,1023.69
2017-02-14T09:49:10.735Z,1023.74
2017-02-14T09:50:10.782Z,1023.7
2017-02-14T09:51:10.719Z,1023.72
2017-02-14T09:52:10.707Z,1023.74
2017-02-14T09:53:10.690Z,1023.76
2017-02-14T09:54:10.687Z,1023.78
2017-02-14T09:55:10.675Z,1023.78
2017-02-14T09:56:10.658Z,1023.81
2017-02-14T09:57:10.655Z,1023.81
2017-02-14T09:58:10.637Z,1023.77
2017-02-14T09:59:10.628Z,1023.75
2017-02-14T10:00:10.623Z,1023.77
2017-02-14T10:01:10.613Z,1023.78
2017-02-14T10:02:10.601Z,1023.78
2017-02-14T10:03:10.588Z,1023.78
2017-02-14T10:04:10.581Z,1023.8
2017-02-14T10:05:10.566Z,1023.81
2017-02-14T10:06:10.556Z,1023.83
2017-02-14T10:07:10.552Z,1023.79
2017-02-14T10:08:10.539Z,1023.81
2017-02-14T10:09:10.527Z,1023.82
2017-02-14T10:10:10.517Z,1023.77
2017-02-14T10:11:10.508Z,1023.83
2017-02-14T10:12:10.497Z,1023.85
2017-02-14T10:13:10.488Z,1023.91
2017-02-14T10:14:10.476Z,1023.91
2017-02-14T10:15:10.469Z,1023.91
2017-02-14T10:16:10.455Z,1023.94
2017-02-14T10:17:10.454Z,1023.99
2017-02-14T10:18:10.443Z,1024.03
2017-02-14T10:19:10.433Z,1024.02
2017-02-14T10:20:10.416Z,1024.08
2017-02-14T10:21:10.415Z,1024.03
2017-02-14T10:22:10.399Z,1024.08
2017-02-14T10:23:10.391Z,1024.02
2017-02-14T10:24:10.380Z,1024.01
2017-02-14T10:25:10.370Z,1024.07
2017-02-14T10:26:10.362Z,1024.1
2017-02-14T10:27:10.351Z,1024.04
2017-02-14T10:28:10.339Z,1024.05
2017-02-14T10:29:10.329Z,1024.05
2017-02-14T10:30:10.317Z,1024.03
2017-02-14T10:31:10.310Z,1024.07
2017-02-14T10:32:10.296Z,1024.02
2017-02-14T10:33:10.286Z,1024.02
2017-02-14T10:34:10.278Z,1024.06
2017-02-14T10:35:10.262Z,1024.06
2017-02-14T10:36:10.253Z,1024.06
2017-02-14T10:37:10.244Z,1024.12
2017-02-14T10:38:10.229Z,1024.09
2017-02-14T10:39:10.224Z,1024.14
2017-02-14T10:40:10.204Z,1024.15
2017-02-14T10:41:10.201Z,1024.1
2017-02-14T10:42:10.192Z,1024.16
2017-02-14T10:43:10.180Z,1024.1
2017-02-14T10:44:10.170Z,1024.15
2017-02-14T10:45:10.157Z,1024.14
2017-02-14T10:46:10.150Z,1024.15
2017-02-14T10:47:10.130Z,1024.21
2017-02-14T10:48:10.122Z,1024.2
2017-02-14T10:49:10.118Z,1024.17
2017-02-14T10:50:10.101Z,1024.18
2017-02-14T10:51:10.095Z,1024.16
2017-02-14T10:52:10.085Z,1024.17
2017-02-14T10:53:10.070Z,1024.18
2017-02-14T10:54:10.056Z,1024.16
2017-02-14T10:55:10.057Z,1024.17
2017-02-14T10:56:10.038Z,1024.18
2017-02-14T10:57:10.032Z,1024.16
2017-02-14T10:58:10.023Z,1024.12
2017-02-14T10:59:10.005Z,1024.11
2017-02-14T11:00:09.998Z,1024.13
2017-02-14T11:01:09.989Z,1024.12
2017-02-14T11:02:09.977Z,1024.07
2017-02-14T11:03:09.971Z,1024.04
2017-02-14T11:04:09.960Z,1024.02
2017-02-14T11:05:09.942Z,1024.04
2017-02-14T11:06:09.935Z,1023.98
2017-02-14T11:07:09.923Z,1023.98
2017-02-14T11:08:09.914Z,1023.96
2017-02-14T11:09:09.904Z,1024.01
2017-02-14T11:10:09.890Z,1023.96
2017-02-14T11:11:09.881Z,1023.95
2017-02-14T11:12:09.872Z,1023.93
2017-02-14T11:13:09.862Z,1023.97
2017-02-14T11:14:09.851Z,1024
2017-02-14T11:15:09.842Z,1023.97
2017-02-14T11:16:09.832Z,1023.99
2017-02-14T11:17:09.821Z,1023.99
2017-02-14T11:18:09.811Z,1023.97
2017-02-14T11:19:09.803Z,1023.99
2017-02-14T11:20:09.791Z,1024
2017-02-14T11:21:09.789Z,1023.99
2017-02-14T11:22:09.782Z,1023.97
2017-02-14T11:23:09.759Z,1023.95
2017-02-14T11:24:09.748Z,1023.95
2017-02-14T11:25:09.737Z,1023.9
2017-02-14T11:26:09.734Z,1023.98
2017-02-14T11:27:09.717Z,1023.95
2017-02-14T11:28:09.705Z,1023.94
2017-02-14T11:29:09.697Z,1023.95
2017-02-14T11:30:09.686Z,1023.98
2017-02-14T11:31:09.675Z,1023.98
2017-02-14T11:32:09.665Z,1023.96
2017-02-14T11:33:09.654Z,1023.94
2017-02-14T11:34:09.763Z,1023.92
2017-02-14T11:35:09.634Z,1023.9
2017-02-14T11:36:09.709Z,1023.9
2017-02-14T11:37:09.612Z,1023.91
2017-02-14T11:38:09.656Z,1023.9
2017-02-14T11:39:09.593Z,1023.93
2017-02-14T11:40:09.632Z,1023.94
2017-02-14T11:41:09.570Z,1023.92
2017-02-14T11:42:09.560Z,1023.94
2017-02-14T11:43:09.551Z,1023.92
2017-02-14T11:44:09.591Z,1023.86
2017-02-14T11:45:09.529Z,1023.87
2017-02-14T11:46:09.518Z,1023.84
2017-02-14T11:47:09.506Z,1023.85
2017-02-14T11:48:09.497Z,1023.85
2017-02-14T11:49:09.486Z,1023.85
2017-02-14T11:50:09.471Z,1023.89
2017-02-14T11:51:09.476Z,1023.86
2017-02-14T11:52:09.455Z,1023.82
2017-02-14T11:53:09.442Z,1023.83
2017-02-14T11:54:09.435Z,1023.83
2017-02-14T11:55:09.414Z,1023.81
2017-02-14T11:56:09.406Z,1023.86
2017-02-14T11:57:09.392Z,1023.87
2017-02-14T11:58:09.392Z,1023.88
2017-02-14T11:59:09.383Z,1023.87
2017-02-14T12:00:09.361Z,1023.85
2017-02-14T12:01:09.356Z,1023.82
2017-02-14T12:02:09.340Z,1023.87
2017-02-14T12:03:09.323Z,1023.89
2017-02-14T12:04:09.313Z,1023.85
2017-02-14T12:05:09.309Z,1023.89
2017-02-14T12:06:09.287Z,1023.87
2017-02-14T12:07:09.278Z,1023.86
2017-02-14T12:08:09.267Z,1023.86